Airfield :







YOU CAN JOIN US ON...

 
LOGIN :

Register | Disclaimer

   EN    FR    IT 

 









Legend :    VFR   Marginal VFR   IFR   Intensive IFR   Very Intensive IFR
Visi :
Ceiling :
>= 8 km
>= 3000ft
5 to 8 km
1000 to 3000 ft
1500m to 5 km
500 to 1000 ft
800 to 1500m
200 to 500 ft
< 800m
< 200 ft
Symbols :   Thunderstorms  Fog  Heavy snow  Heavy precipitations  Wind > 20 kt






- Airport Elevation : 1663 ft
- IATA code : SLK


KSLK - Adirondack Regional

CURRENT METAR :
  • 122351Z AUTO 29009G20KT 240V350 3SM -SN BKN021 OVC027 M12/M16 A2994 RMK AO2 SLP170 P0000 60000 T11171156 11083 21117 53014

EXPIRED METARs :
  • 122251Z AUTO 29005KT 3SM -SN BKN023 OVC041 M11/M15 A2991 RMK AO2 SNB44 SLP161 P0000 T11111150
  • 122237Z AUTO VRB03KT 9SM BKN023 BKN041 M12/M16 A2991 RMK AO2 T11171156
  • 122151Z AUTO 27008G14KT 230V300 10SM BKN036 M11/M16 A2990 RMK AO2 SNE12 SLP156 P0000 T11111161

TAF KSLK
Valid from the 13 at 00:00 until the 14 at 00:00 UTC


122332Z 1300/1324 27007KT P6SM BKN025 OVC035
TEMPO 1300/1302 3SM -SN
FM130400 26008KT P6SM BKN019 OVC035
FM131200 25005KT P6SM BKN012 OVC025
FM131700 24006KT P6SM SCT025
FM132300 00000KT P6SM SCT040



MET'MAP, your aeronautical weather chart ! - Copyright ORBIFLY December 2007 - Disclaimer

ORBIFLY MET'MAP TEAM :

Programming & Development : Alexandra Zaïnal
Concept & Development : Baudouin d'Aumeries
Co-Development & Prog : Marc-Olivier Méhu
Technical & hardware support : Manuel Goepfert

Contact : metmap@orbifly.com




SOURCES & CREDITS :

   NOAA